Flight Track Log - Related Links

Times and Time Zones

All times are in EDT time to prevent confusion due to time zone crossing. See the TAM3542 flight status page for this flight to view local times or setup timezone preferences in your user account.

Time Position Orientation Groundspeed Altitude Reporting Facility
EDT Latitude Longitude Course Direction KTS MPH feet Rate Location/Type
Sun 08:28:29 PM -15.8630 -47.9190 44° Northeast 130 150  Level FlightAware ADS-B
Sun 08:28:55 PM -15.8610 -47.8960 85° East 169 194 4,200 6,652 Climbing FlightAware ADS-B
Sun 08:29:15 PM -15.8610 -47.8800 90° East 151 174 5,100 1,950 Climbing FlightAware ADS-B
Sun 08:29:35 PM -15.8600 -47.8660 86° East 156 180 5,500 1,333 Climbing FlightAware ADS-B
Sun 08:29:51 PM -15.8570 -47.8550 74° East 159 183 5,900 1,250 Climbing FlightAware ADS-B
Sun 08:29:59 PM -15.8530 -47.8490 55° Northeast 167 192 6,000 1,000 Climbing FlightAware ADS-B
Sun 08:30:21 PM -15.8400 -47.8360 44° Northeast 187 215 6,400 1,000 Climbing FlightAware ADS-B
Sun 08:30:35 PM -15.8310 -47.8270 44° Northeast 203 234 6,600 714 Climbing FlightAware ADS-B
Sun 08:31:03 PM -15.8100 -47.8050 45° Northeast 237 273 6,900 625 Climbing FlightAware ADS-B
Sun 08:31:23 PM -15.7950 -47.7890 46° Northeast 263 303 7,100 1,200 Climbing FlightAware ADS-B
Sun 08:31:43 PM -15.7770 -47.7690 47° Northeast 280 322 7,700 2,400 Climbing FlightAware ADS-B
Sun 08:32:03 PM -15.7590 -47.7490 47° Northeast 278 320 8,700 2,550 Climbing FlightAware ADS-B
Sun 08:32:23 PM -15.7390 -47.7290 44° Northeast 286 329 9,400 2,294 Climbing FlightAware ADS-B
Sun 08:32:37 PM -15.7270 -47.7150 48° Northeast 285 328 10,000 2,077 Climbing FlightAware ADS-B
Sun 08:33:15 PM -15.6900 -47.6790 43° Northeast 295 339 11,200 2,000 Climbing FlightAware ADS-B
Sun 08:33:28 PM -15.6740 -47.6720 23° Northeast 292 336 11,700 2,143 Climbing FlightAware ADS-B
Sun 08:33:43 PM -15.6530 -47.6690 North 293 337 12,200 1,957 Climbing FlightAware ADS-B
Sun 08:34:14 PM -15.6110 -47.6690 360° North 301 346 13,200 2,066 Climbing FlightAware ADS-B
Sun 08:34:44 PM -15.5710 -47.6790 346° North 303 349 14,300 1,867 Climbing FlightAware ADS-B
Sun 08:34:59 PM -15.5570 -47.6950 312° West 314 361 14,600 1,440 Climbing FlightAware ADS-B
Sun 08:35:09 PM -15.5510 -47.7100 293° West 325 374 14,900 1,800 Climbing FlightAware ADS-B
Sun 08:35:19 PM -15.5500 -47.7250 274° West 329 379 15,200 2,600 Climbing FlightAware ADS-B
Sun 08:35:39 PM -15.5550 -47.7560 260° West 329 379 16,200 2,073 Climbing FlightAware ADS-B
Sun 08:36:14 PM -15.5710 -47.8080 252° West 335 386 17,100 1,371 Climbing FlightAware ADS-B
Sun 08:36:49 PM -15.5810 -47.8640 259° West 347 399 17,800 771 Climbing FlightAware ADS-B
Sun 08:37:24 PM -15.5900 -47.9230 261° West 347 399 18,000 171 Climbing FlightAware ADS-B
Sun 08:37:59 PM -15.5950 -47.9820 265° West 348 400 18,000 171 Level FlightAware ADS-B
Sun 08:38:34 PM -15.6000 -48.0390 265° West 350 403 18,200 1,629 Climbing FlightAware ADS-B
Sun 08:39:09 PM -15.6060 -48.0960 264° West 325 374 19,900 1,714 Climbing FlightAware ADS-B
Sun 08:39:44 PM -15.6110 -48.1520 265° West 346 398 20,200 857 Climbing FlightAware ADS-B
Sun 08:40:19 PM -15.6150 -48.2110 266° West 355 409 20,900 1,200 Climbing FlightAware ADS-B
Sun 08:40:49 PM -15.6140 -48.2610 271° West 362 417 21,500 1,200 Climbing FlightAware ADS-B
Sun 08:41:24 PM -15.6230 -48.3230 261° West 371 427 22,200 1,543 Climbing FlightAware ADS-B
Sun 08:41:59 PM -15.6350 -48.3840 258° West 362 417 23,300 1,521 Climbing FlightAware ADS-B
Sun 08:42:35 PM -15.6450 -48.4440 260° West 366 421 24,000 1,059 Climbing FlightAware ADS-B
Sun 08:43:07 PM -15.6510 -48.5010 264° West 371 427 24,500 1,029 Climbing FlightAware ADS-B
Sun 08:43:45 PM -15.6570 -48.5690 265° West 378 435 25,200 1,054 Climbing FlightAware ADS-B
Sun 08:44:21 PM -15.6640 -48.6370 264° West 384 442 25,800 1,105 Climbing FlightAware ADS-B
Sun 08:45:01 PM -15.6600 -48.7080 273° West 387 445 26,600 1,091 Climbing FlightAware ADS-B
Sun 08:45:16 PM -15.6510 -48.7270 296° West 388 447 26,800 1,200 Climbing FlightAware ADS-B
Sun 08:45:26 PM -15.6370 -48.7440 311° West 390 449 27,100 900 Climbing FlightAware ADS-B
Sun 08:45:36 PM -15.6210 -48.7580 320° Northwest 398 458 27,100 450 Level FlightAware ADS-B
Sun 08:46:06 PM -15.5750 -48.7910 325° Northwest 410 472 27,400 554 Climbing FlightAware ADS-B
Sun 08:46:41 PM -15.5170 -48.8330 325° Northwest 423 487 27,700 960 Climbing FlightAware ADS-B
Sun 08:47:21 PM -15.4540 -48.8780 325° Northwest 422 486 28,600 1,280 Climbing FlightAware ADS-B
Sun 08:47:56 PM -15.3980 -48.9190 325° Northwest 425 489 29,300 800 Climbing FlightAware ADS-B
Sun 08:48:36 PM -15.3310 -48.9670 325° Northwest 438 504 29,600 720 Climbing FlightAware ADS-B
Sun 08:49:11 PM -15.2720 -49.0090 326° Northwest 440 506 30,200 1,077 Climbing FlightAware ADS-B
Sun 08:49:54 PM -15.2020 -49.0600 325° Northwest 441 507 31,000 1,077 Climbing FlightAware ADS-B
Sun 08:50:29 PM -15.1460 -49.1000 325° Northwest 438 504 31,600 1,029 Climbing FlightAware ADS-B
Sun 08:51:04 PM -15.0870 -49.1430 325° Northwest 440 506 32,200 935 Climbing FlightAware ADS-B
Sun 08:51:46 PM -15.0190 -49.1920 325° Northwest 439 505 32,800 960 Climbing FlightAware ADS-B
Sun 08:52:19 PM -14.9590 -49.2350 325° Northwest 439 505 33,400 822 Climbing FlightAware ADS-B
Sun 08:52:59 PM -14.8950 -49.2810 325° Northwest 441 507 33,800 686 Climbing FlightAware ADS-B
Sun 08:53:29 PM -14.8430 -49.3190 325° Northwest 443 510 34,200 1,200 Climbing FlightAware ADS-B
Sun 08:54:04 PM -14.7830 -49.3620 325° Northwest 434 499 35,100 960 Climbing FlightAware ADS-B
Sun 08:54:44 PM -14.7170 -49.4100 325° Northwest 439 505 35,400 600 Climbing FlightAware ADS-B
Sun 08:55:14 PM -14.6670 -49.4420 328° Northwest 438 504 35,800 545 Climbing FlightAware ADS-B
Sun 08:55:39 PM -14.6210 -49.4570 342° North 445 512 35,900 185 Climbing FlightAware ADS-B
Sun 08:56:19 PM -14.5360 -49.4780 347° North 449 517 36,000 79 Climbing FlightAware ADS-B
Sun 08:56:55 PM -14.4680 -49.4950 346° North 462 532 36,000  Level FlightAware ADS-B
Sun 08:57:29 PM -14.3900 -49.5140 347° North 467 537 36,000  Level FlightAware ADS-B
Sun 08:58:05 PM -14.3300 -49.5290 346° North 469 540 36,000  Level FlightAware ADS-B
Sun 08:58:41 PM -14.2540 -49.5500 345° North 470 541 36,000  Level FlightAware ADS-B
Sun 08:59:17 PM -14.1890 -49.5670 346° North 470 541 36,000  Level FlightAware ADS-B
Sun 09:00:05 PM -14.1030 -49.5890 346° North 470 541 36,000  Level FlightAware ADS-B
Sun 09:00:41 PM -14.0390 -49.6050 346° North 470 541 36,000  Level FlightAware ADS-B
Sun 09:01:18 PM -13.9720 -49.6220 346° North 470 541 36,000  Level FlightAware ADS-B
Sun 09:01:54 PM -13.9080 -49.6390 346° North 470 541 36,000  Level FlightAware ADS-B
Sun 09:02:30 PM -13.8430 -49.6550 347° North 470 541 36,000  Level FlightAware ADS-B
Sun 09:03:06 PM -13.7790 -49.6720 346° North 470 541 36,000  Level FlightAware ADS-B
Sun 09:03:43 PM -13.7120 -49.6890 346° North 470 541 36,000  Level FlightAware ADS-B
Sun 09:04:19 PM -13.6480 -49.7060 346° North 470 541 36,000  Level FlightAware ADS-B
Sun 09:04:55 PM -13.5830 -49.7220 347° North 470 541 36,000  Level FlightAware ADS-B
Sun 09:05:32 PM -13.5170 -49.7390 346° North 470 541 36,000  Level FlightAware ADS-B
Sun 09:06:08 PM -13.4520 -49.7560 346° North 470 541 36,000  Level FlightAware ADS-B
Sun 09:06:44 PM -13.3880 -49.7720 346° North 470 541 36,000  Level FlightAware ADS-B
Sun 09:07:20 PM -13.3230 -49.7890 346° North 470 541 36,000  Level FlightAware ADS-B
Sun 09:07:56 PM -13.2580 -49.8050 347° North 470 541 36,000 -224 Level FlightAware ADS-B
Sun 09:10:00 PM -13.0783 -49.9935 314° West  Level Estimated
Sun 09:11:00 PM -12.9913 -50.0846 314° West  Level Estimated
Sun 09:12:00 PM -12.9043 -50.1756 314° West  Level Estimated
Sun 09:13:00 PM -12.8173 -50.2666 314° West  Level Estimated
Sun 09:14:00 PM -12.7302 -50.3575 314° West  Level Estimated
Sun 09:15:00 PM -12.6430 -50.4483 314° West  Level Estimated
Sun 09:16:00 PM -12.5559 -50.5391 315° West  Level Estimated
Sun 09:17:00 PM -12.4687 -50.6298 315° West  Level Estimated
Sun 09:18:00 PM -12.3815 -50.7205 315° West  Level Estimated
Sun 09:19:00 PM -12.2943 -50.8111 315° West  Level Estimated
Sun 09:20:00 PM -12.2070 -50.9016 315° West  Level Estimated
Sun 09:21:00 PM -12.1197 -50.9921 315° West  Level Estimated
Sun 09:22:00 PM -12.0324 -51.0825 315° West  Level Estimated
Sun 09:23:00 PM -11.9450 -51.1729 315° West  Level Estimated
Sun 09:24:00 PM -11.8576 -51.2632 315° West  Level Estimated
Sun 09:25:00 PM -11.7702 -51.3534 315° West  Level Estimated
Sun 09:26:00 PM -11.6827 -51.4436 315° West  Level Estimated
Sun 09:27:00 PM -11.5953 -51.5337 315° West  Level Estimated
Sun 09:28:00 PM -11.5078 -51.6238 315° West  Level Estimated
Sun 09:29:00 PM -11.4202 -51.7138 315° West  Level Estimated
Sun 09:30:00 PM -11.3327 -51.8038 315° West  Level Estimated
Sun 09:31:00 PM -11.2451 -51.8937 315° West  Level Estimated
Sun 09:32:00 PM -11.1575 -51.9836 315° West  Level Estimated
Sun 09:33:00 PM -11.0699 -52.0733 315° West  Level Estimated
Sun 09:34:00 PM -10.9822 -52.1631 315° West  Level Estimated
Sun 09:35:00 PM -10.8945 -52.2528 315° West  Level Estimated
Sun 09:36:00 PM -10.8068 -52.3424 315° West  Level Estimated
Sun 09:37:00 PM -10.7191 -52.4320 315° West  Level Estimated
Sun 09:38:00 PM -10.6313 -52.5215 315° West  Level Estimated
Sun 09:39:00 PM -10.5435 -52.6110 315° West  Level Estimated
Sun 09:40:00 PM -10.4557 -52.7005 315° West  Level Estimated
Sun 09:41:00 PM -10.3679 -52.7898 315° West  Level Estimated
Sun 09:42:00 PM -10.2800 -52.8792 315° West  Level Estimated
Sun 09:43:00 PM -10.1921 -52.9684 315° West  Level Estimated
Sun 09:44:00 PM -10.1042 -53.0577 315° West  Level Estimated
Sun 09:45:00 PM -10.0162 -53.1469 315° West  Level Estimated
Sun 09:46:00 PM -9.9283 -53.2360 315° West  Level Estimated
Sun 09:47:00 PM -9.8403 -53.3251 315° West  Level Estimated
Sun 09:48:00 PM -9.7523 -53.4141 315° West  Level Estimated
Sun 09:49:00 PM -9.6643 -53.5031 315° West  Level Estimated
Sun 09:50:00 PM -9.5762 -53.5921 315° West  Level Estimated
Sun 09:51:00 PM -9.4881 -53.6810 315° West  Level Estimated
Sun 09:52:00 PM -9.4000 -53.7698 315° West  Level Estimated
Sun 09:53:00 PM -9.3119 -53.8586 315° West  Level Estimated
Sun 09:54:00 PM -9.2238 -53.9474 315° West  Level Estimated
Sun 09:55:00 PM -9.1356 -54.0361 315° West  Level Estimated
Sun 09:56:00 PM -9.0474 -54.1248 315° West  Level Estimated
Sun 09:57:00 PM -8.9592 -54.2134 315° West  Level Estimated
Sun 09:58:00 PM -8.8709 -54.3020 315° West  Level Estimated
Sun 09:59:00 PM -8.7827 -54.3905 315° West  Level Estimated
Sun 10:00:00 PM -8.6944 -54.4790 315° West  Level Estimated
Sun 10:01:00 PM -8.6061 -54.5675 315° West  Level Estimated
Sun 10:02:00 PM -8.5178 -54.6559 315° West  Level Estimated
Sun 10:03:00 PM -8.4295 -54.7443 315° West  Level Estimated
Sun 10:04:00 PM -8.3412 -54.8326 315° West  Level Estimated
Sun 10:05:00 PM -8.2528 -54.9210 315° West  Level Estimated
Sun 10:06:00 PM -8.1644 -55.0092 315° West  Level Estimated
Sun 10:07:00 PM -8.0760 -55.0974 315° West  Level Estimated
Sun 10:08:00 PM -7.9875 -55.1856 315° West  Level Estimated
Sun 10:09:00 PM -7.8991 -55.2738 315° West  Level Estimated
Sun 10:10:00 PM -7.8106 -55.3619 315° West  Level Estimated
Sun 10:11:00 PM -7.7221 -55.4499 315° West  Level Estimated
Sun 10:12:00 PM -7.6336 -55.5380 315° West  Level Estimated
Sun 10:13:00 PM -7.5451 -55.6260 315° West  Level Estimated
Sun 10:14:00 PM -7.4566 -55.7139 315° West  Level Estimated
Sun 10:15:00 PM -7.3680 -55.8019 315° West  Level Estimated
Sun 10:16:00 PM -7.2795 -55.8898 315° West  Level Estimated
Sun 10:17:00 PM -7.1909 -55.9776 315° West  Level Estimated
Sun 10:18:00 PM -7.1023 -56.0654 315° West  Level Estimated
Sun 10:19:00 PM -7.0136 -56.1532 315° West  Level Estimated
Sun 10:20:00 PM -6.9250 -56.2410 315° West  Level Estimated
Sun 10:21:00 PM -6.8364 -56.3287 316° Northwest  Level Estimated
Sun 10:22:00 PM -6.7477 -56.4164 316° Northwest  Level Estimated
Sun 10:23:00 PM -6.6590 -56.5040 316° Northwest  Level Estimated
Sun 10:24:00 PM -6.5703 -56.5917 316° Northwest  Level Estimated
Sun 10:25:00 PM -6.4816 -56.6792 316° Northwest  Level Estimated
Sun 10:26:00 PM -6.3928 -56.7668 316° Northwest  Level Estimated
Sun 10:27:00 PM -6.3041 -56.8543 316° Northwest  Level Estimated
Sun 10:28:00 PM -6.2153 -56.9418 316° Northwest  Level Estimated
Sun 10:29:00 PM -6.1266 -57.0293 316° Northwest  Level Estimated
Sun 10:30:00 PM -6.0378 -57.1167 316° Northwest  Level Estimated
Sun 10:31:00 PM -5.9490 -57.2042 316° Northwest  Level Estimated
Sun 10:32:00 PM -5.8601 -57.2916 316° Northwest  Level Estimated
Sun 10:33:00 PM -5.7713 -57.3789 316° Northwest  Level Estimated
Sun 10:34:00 PM -5.6825 -57.4663 316° Northwest  Level Estimated
Sun 10:35:00 PM -5.5936 -57.5536 316° Northwest  Level Estimated
Sun 10:36:00 PM -5.5047 -57.6408 316° Northwest  Level Estimated
Sun 10:37:00 PM -5.4159 -57.7281 316° Northwest  Level Estimated
Sun 10:38:00 PM -5.3270 -57.8153 316° Northwest  Level Estimated
Sun 10:39:00 PM -5.2381 -57.9025 316° Northwest  Level Estimated
Sun 10:40:00 PM -5.1491 -57.9897 316° Northwest  Level Estimated
Sun 10:41:00 PM -5.0602 -58.0769 316° Northwest  Level Estimated
Sun 10:42:00 PM -4.9713 -58.1640 316° Northwest  Level Estimated
Sun 10:43:00 PM -4.8823 -58.2511 316° Northwest  Level Estimated
Sun 10:44:00 PM -4.7934 -58.3382 316° Northwest  Level Estimated
Sun 10:45:00 PM -4.7044 -58.4252 316° Northwest  Level Estimated
Sun 10:46:00 PM -4.6154 -58.5123 316° Northwest  Level Estimated
Sun 10:47:00 PM -4.5264 -58.5993 316° Northwest  Level Estimated
Sun 10:48:00 PM -4.4374 -58.6863 316° Northwest  Level Estimated
Sun 10:49:00 PM -4.3484 -58.7732 316° Northwest  Level Estimated
Sun 10:50:00 PM -4.2593 -58.8602 316° Northwest  Level Estimated
Sun 10:51:00 PM -4.1703 -58.9471 316° Northwest  Level Estimated
Sun 10:52:00 PM -4.0812 -59.0340 316° Northwest  Level Estimated
Sun 10:53:00 PM -3.9922 -59.1209 316° Northwest  Level Estimated
Sun 10:54:00 PM -3.9031 -59.2078 316° Northwest  Level Estimated
Sun 10:55:00 PM -3.8140 -59.2947 316° Northwest  Level Estimated
Sun 10:56:00 PM -3.7250 -59.3815 316° Northwest  Level Estimated
Sun 10:56:17 PM -3.3630 -59.5840 316° Northwest 370 426 11,600  Level FlightAware ADS-B
Sun 10:56:51 PM -3.3390 -59.6360 295° West 361 415 10,800 -1,091 Descending FlightAware ADS-B
Sun 10:57:23 PM -3.3160 -59.6830 296° West 335 386 10,400 -774 Descending FlightAware ADS-B
Sun 10:57:53 PM -3.2980 -59.7240 294° West 318 366 10,000 -1,080 Descending FlightAware ADS-B
Sun 10:58:13 PM -3.2850 -59.7510 296° West 314 361 9,500 -1,500 Descending FlightAware ADS-B
Sun 10:58:33 PM -3.2730 -59.7770 295° West 312 359 9,000 -1,565 Descending FlightAware ADS-B
Sun 10:58:59 PM -3.2580 -59.8100 294° West 310 357 8,300 -1,565 Descending FlightAware ADS-B
Sun 10:59:19 PM -3.2450 -59.8370 296° West 306 352 7,800 -1,421 Descending FlightAware ADS-B
Sun 10:59:37 PM -3.2350 -59.8600 294° West 303 349 7,400 -1,350 Descending FlightAware ADS-B
Sun 10:59:59 PM -3.2220 -59.8880 295° West 298 343 6,900 -1,364 Descending FlightAware ADS-B
Sun 11:00:21 PM -3.2090 -59.9150 296° West 297 342 6,400 -1,364 Descending FlightAware ADS-B
Sun 11:00:43 PM -3.1960 -59.9420 296° West 293 337 5,900 -1,286 Descending FlightAware ADS-B
Sun 11:01:03 PM -3.1850 -59.9660 295° West 289 333 5,500 -1,350 Descending FlightAware ADS-B
Sun 11:01:23 PM -3.1740 -59.9910 294° West 287 330 5,000 -1,500 Descending FlightAware ADS-B
Sun 11:01:39 PM -3.1650 -60.0090 297° West 287 330 4,600 -1,500 Descending FlightAware ADS-B
Sun 11:01:59 PM -3.1540 -60.0350 293° West 285 328 4,100 -1,350 Descending FlightAware ADS-B
Sun 11:02:19 PM -3.1430 -60.0580 296° West 280 322 3,700 -1,350 Descending FlightAware ADS-B
Sun 11:02:39 PM -3.1320 -60.0810 296° West 276 318 3,200 -1,463 Descending FlightAware ADS-B
Sun 11:03:00 PM -3.1210 -60.1040 296° West 275 316 2,700 -1,174 Descending FlightAware ADS-B
Sun 11:03:25 PM -3.1080 -60.1330 294° West 266 306 2,300 -667 Descending FlightAware ADS-B
Sun 11:03:45 PM -3.0980 -60.1550 294° West 252 290 2,200 -375 Descending FlightAware ADS-B
Sun 11:03:57 PM -3.0910 -60.1680 298° West 244 281 2,100 -300 Descending FlightAware ADS-B
Sun 11:04:05 PM -3.0850 -60.1740 315° West 237 273 2,100  Level FlightAware ADS-B
Sun 11:04:13 PM -3.0770 -60.1780 333° Northwest 226 260 2,100  Level FlightAware ADS-B
Sun 11:04:21 PM -3.0690 -60.1790 353° North 216 249 2,100  Level FlightAware ADS-B
Sun 11:04:41 PM -3.0500 -60.1770 North 203 234 2,100  Level FlightAware ADS-B
Sun 11:04:43 PM -3.0480 -60.1760 27° Northeast 197 227 2,100  Level FlightAware ADS-B
Sun 11:04:53 PM -3.0420 -60.1720 34° Northeast 176 203 2,100  Level FlightAware ADS-B
Sun 11:05:01 PM -3.0400 -60.1660 72° East 168 193 2,100  Level FlightAware ADS-B
Sun 11:05:09 PM -3.0390 -60.1600 81° East 158 182 2,100 -643 Level FlightAware ADS-B
Sun 11:05:29 PM -3.0380 -60.1460 86° East 154 177 1,800 -778 Descending FlightAware ADS-B
Sun 11:06:03 PM -3.0380 -60.1230 90° East 146 168 1,400 -632 Descending FlightAware ADS-B
Sun 11:06:26 PM -3.0390 -60.1070 94° East 146 168 1,200 -667 Descending FlightAware ADS-B
Sun 11:06:39 PM -3.0390 -60.0980 90° East 146 168 1,000 -750 Descending FlightAware ADS-B
Sun 11:07:06 PM -3.0390 -60.0800 90° East 148 170 700 -429 Descending FlightAware ADS-B
Sun 11:07:35 PM -3.0390 -60.0630 90° East 148 170 600 -207 Descending FlightAware ADS-B

Login

Don't have an account? Register now (free) for customized features, flight alerts, and more!